createdAt,value
2022-11-25T01:49:56.284Z,14.57
2022-11-25T01:52:45.287Z,13.83
2022-11-25T01:55:33.869Z,12.13
2022-11-25T01:58:21.695Z,10.17
2022-11-25T02:03:54.868Z,15.03
2022-11-25T02:06:41.411Z,14.73
2022-11-25T02:09:41.994Z,10.20
2022-11-25T02:15:08.291Z,12.27
2022-11-25T02:24:38.029Z,12.97
2022-11-25T02:27:22.565Z,13.80
2022-11-25T02:35:47.768Z,10.63
2022-11-25T02:38:34.105Z,11.80
2022-11-25T02:41:43.036Z,13.13
2022-11-25T02:44:21.108Z,13.37
2022-11-25T02:49:48.978Z,11.27
2022-11-25T02:52:23.028Z,14.17
2022-11-25T02:55:10.709Z,13.87
2022-11-25T02:57:45.477Z,12.83
2022-11-25T03:00:27.656Z,11.03
2022-11-25T03:08:37.383Z,14.40
2022-11-25T03:16:44.455Z,15.23
2022-11-25T03:22:04.504Z,15.63
2022-11-25T03:27:15.311Z,11.93
2022-11-25T03:29:42.148Z,13.30
2022-11-25T03:32:09.811Z,12.53
2022-11-25T03:34:37.455Z,12.40
2022-11-25T03:37:04.621Z,11.67
2022-11-25T03:39:31.570Z,13.83
2022-11-25T03:41:58.556Z,13.27
2022-11-25T03:44:25.642Z,16.67
2022-11-25T03:46:52.916Z,13.70
2022-11-25T03:49:21.793Z,12.00
2022-11-25T03:51:49.614Z,15.63
2022-11-25T03:54:16.670Z,11.27
2022-11-25T03:56:43.826Z,14.60
2022-11-25T03:59:10.883Z,15.90
2022-11-25T04:01:42.893Z,14.87
2022-11-25T04:04:11.329Z,12.47
2022-11-25T04:06:40.878Z,13.17
2022-11-25T04:09:09.272Z,11.77
2022-11-25T04:11:54.930Z,13.70
2022-11-25T04:14:21.967Z,11.27
2022-11-25T04:16:49.447Z,8.40
2022-11-25T04:19:16.521Z,15.13
2022-11-25T04:21:46.782Z,16.73
2022-11-25T04:24:16.535Z,13.90
2022-11-25T04:26:43.551Z,12.83
2022-11-25T04:29:10.734Z,13.20
2022-11-25T04:31:38.320Z,11.63
2022-11-25T04:34:05.847Z,13.43
2022-11-25T04:36:33.268Z,12.53
2022-11-25T04:39:00.688Z,11.27
2022-11-25T04:41:30.969Z,12.10
2022-11-25T04:44:00.454Z,13.20
2022-11-25T04:46:34.429Z,15.67
2022-11-25T04:49:01.474Z,14.23
2022-11-25T04:51:32.182Z,16.70
2022-11-25T04:53:59.288Z,13.77
2022-11-25T04:56:26.252Z,13.33
2022-11-25T04:59:11.830Z,14.73
2022-11-25T05:04:20.937Z,17.23
2022-11-25T05:06:48.415Z,11.97
2022-11-25T05:09:15.429Z,12.57
2022-11-25T05:11:42.218Z,18.97
2022-11-25T05:14:09.327Z,15.07
2022-11-25T05:16:36.545Z,13.00
2022-11-25T05:19:03.766Z,19.80
2022-11-25T05:21:30.906Z,12.50
2022-11-25T05:23:57.952Z,12.57
2022-11-25T05:26:25.042Z,17.60
2022-11-25T05:28:52.286Z,16.33
2022-11-25T05:31:19.272Z,11.00
2022-11-25T05:33:46.269Z,12.53
2022-11-25T05:36:13.166Z,11.27
2022-11-25T05:38:40.106Z,19.90
2022-11-25T05:41:08.075Z,15.23
2022-11-25T05:43:37.018Z,14.00
2022-11-25T05:46:07.733Z,16.40
2022-11-25T05:48:35.383Z,14.10
2022-11-25T05:51:03.814Z,15.93
2022-11-25T05:53:31.404Z,18.77
2022-11-25T05:56:00.865Z,18.83
2022-11-25T05:58:29.428Z,15.30
2022-11-25T06:00:57.260Z,20.50
2022-11-25T06:03:30.093Z,16.50
2022-11-25T06:05:58.643Z,13.67
2022-11-25T06:08:26.842Z,16.07
2022-11-25T06:10:54.532Z,16.70
2022-11-25T06:13:22.318Z,19.07
2022-11-25T06:15:52.039Z,17.77
2022-11-25T06:18:19.449Z,19.67
2022-11-25T06:20:57.084Z,19.27
2022-11-25T06:23:25.317Z,18.53
2022-11-25T06:25:52.505Z,16.40
2022-11-25T06:28:19.356Z,18.00
2022-11-25T06:30:46.480Z,14.67
2022-11-25T06:33:13.449Z,20.40
2022-11-25T06:35:40.381Z,20.03
2022-11-25T06:38:07.350Z,18.70
2022-11-25T06:40:34.491Z,23.73
2022-11-25T06:43:01.332Z,17.13
2022-11-25T06:45:28.290Z,26.23
2022-11-25T06:47:55.257Z,12.97
2022-11-25T06:50:22.190Z,19.63
2022-11-25T06:52:52.204Z,21.27
2022-11-25T06:55:19.203Z,20.13
2022-11-25T06:57:46.045Z,15.00
2022-11-25T07:00:13.429Z,19.73
2022-11-25T07:02:45.303Z,15.50
2022-11-25T07:05:15.042Z,19.90
2022-11-25T07:07:41.912Z,16.10
2022-11-25T07:10:09.254Z,15.30
2022-11-25T07:12:36.192Z,16.50
2022-11-25T07:15:10.806Z,22.00
2022-11-25T07:17:37.740Z,16.80
2022-11-25T07:20:05.227Z,18.77
2022-11-25T07:22:32.095Z,21.40
2022-11-25T07:24:59.007Z,16.13
2022-11-25T07:27:25.784Z,20.73
2022-11-25T07:30:29.020Z,21.80
2022-11-25T07:32:40.103Z,14.73
2022-11-25T07:35:07.544Z,17.70
2022-11-25T07:37:34.394Z,16.93
2022-11-25T07:40:01.258Z,16.97
2022-11-25T07:42:28.136Z,18.90
2022-11-25T07:44:54.979Z,15.47
2022-11-25T07:47:21.925Z,20.17
2022-11-25T07:49:48.753Z,16.87
2022-11-25T07:55:18.659Z,17.17
2022-11-25T07:57:45.609Z,22.70
2022-11-25T08:00:14.622Z,15.80
2022-11-25T08:02:41.677Z,18.50
2022-11-25T08:05:09.378Z,18.80
2022-11-25T08:07:36.859Z,21.43
2022-11-25T08:10:04.530Z,22.80
2022-11-25T08:12:32.952Z,22.20
2022-11-25T08:14:59.865Z,15.67
2022-11-25T08:17:26.840Z,27.03
2022-11-25T08:19:54.005Z,13.30
2022-11-25T08:22:21.185Z,17.03
2022-11-25T08:24:48.527Z,22.93
2022-11-25T08:27:15.699Z,30.57
2022-11-25T08:29:43.010Z,21.43
2022-11-25T08:32:11.986Z,18.63
2022-11-25T08:34:39.203Z,20.83
2022-11-25T08:37:06.242Z,26.80
2022-11-25T08:39:51.820Z,26.40
2022-11-25T08:42:19.680Z,23.10
2022-11-25T08:44:52.003Z,22.88
2022-11-25T08:47:18.993Z,25.08
2022-11-25T08:49:46.158Z,25.70
2022-11-25T08:52:13.457Z,20.70
2022-11-25T08:54:42.367Z,24.08
2022-11-25T08:57:09.912Z,19.83
2022-11-25T08:59:41.621Z,19.73
2022-11-25T09:02:12.424Z,22.25
2022-11-25T09:04:41.669Z,18.60
2022-11-25T09:07:09.184Z,23.52
2022-11-25T09:09:38.468Z,19.23
2022-11-25T09:12:09.449Z,20.52
2022-11-25T09:14:37.076Z,24.90
2022-11-25T09:17:11.819Z,21.45
2022-11-25T09:19:42.344Z,22.00
2022-11-25T09:22:09.924Z,21.05
2022-11-25T09:24:41.986Z,20.00
2022-11-25T09:32:43.467Z,18.88
2022-11-25T09:35:10.574Z,17.58
2022-11-25T09:37:37.664Z,17.77
2022-11-25T09:40:07.229Z,14.20
2022-11-25T09:43:07.983Z,18.10
2022-11-25T09:46:14.072Z,12.88
2022-11-25T09:49:07.059Z,16.50
2022-11-25T09:52:00.616Z,15.52
2022-11-25T09:54:34.688Z,17.70
2022-11-25T09:57:15.840Z,14.95
2022-11-25T09:59:59.626Z,14.98
2022-11-25T10:02:39.422Z,14.20
2022-11-25T10:05:21.138Z,17.00
2022-11-25T10:07:53.920Z,12.30
2022-11-25T10:10:30.918Z,13.73
2022-11-25T10:12:59.340Z,11.77
2022-11-25T10:15:44.765Z,13.10
2022-11-25T10:18:31.370Z,15.43
2022-11-25T10:20:58.338Z,10.98
2022-11-25T10:23:32.025Z,12.03
2022-11-25T10:26:12.962Z,12.10
2022-11-25T10:28:45.033Z,11.15
2022-11-25T10:31:22.775Z,10.60
2022-11-25T10:33:58.407Z,11.10
2022-11-25T10:36:34.847Z,10.20
2022-11-25T10:39:04.747Z,10.75
2022-11-25T10:41:37.240Z,9.55
2022-11-25T10:44:10.217Z,10.50
2022-11-25T10:47:12.325Z,8.77
2022-11-25T10:49:40.705Z,8.80
2022-11-25T10:52:13.530Z,7.38
2022-11-25T10:54:41.221Z,9.13
2022-11-25T10:57:20.634Z,10.00
2022-11-25T10:59:59.234Z,9.82
2022-11-25T11:02:40.178Z,9.38
2022-11-25T11:05:10.726Z,10.23
2022-11-25T11:07:40.923Z,10.13
2022-11-25T11:10:17.666Z,8.52
2022-11-25T11:12:54.594Z,9.85
2022-11-25T11:15:35.039Z,9.00
2022-11-25T11:18:35.278Z,9.50
2022-11-25T11:21:02.636Z,9.43
2022-11-25T11:23:30.117Z,9.40
2022-11-25T11:26:00.137Z,8.18
2022-11-25T11:28:38.718Z,8.20
2022-11-25T11:31:19.378Z,8.30
2022-11-25T11:33:51.943Z,8.98
2022-11-25T11:36:39.279Z,9.52
2022-11-25T11:39:44.431Z,8.73
2022-11-25T11:42:20.043Z,8.20
2022-11-25T11:44:58.908Z,7.40
2022-11-25T11:47:42.354Z,8.25
2022-11-25T11:50:18.145Z,10.02
2022-11-25T11:53:05.228Z,9.73
2022-11-25T11:56:11.758Z,9.33
2022-11-25T11:58:37.134Z,10.73
2022-11-25T12:01:32.138Z,8.85
2022-11-25T12:04:08.718Z,9.52
2022-11-25T12:06:38.443Z,9.60
2022-11-25T12:09:12.665Z,9.33
2022-11-25T12:11:46.026Z,9.10
2022-11-25T12:14:45.623Z,10.43
2022-11-25T12:17:26.950Z,10.05
2022-11-25T12:20:03.807Z,10.23
2022-11-25T12:22:36.785Z,9.35
2022-11-25T12:25:25.784Z,10.10
2022-11-25T12:28:01.680Z,8.93
2022-11-25T12:31:00.558Z,11.30
2022-11-25T12:34:06.087Z,12.35
2022-11-25T12:36:45.460Z,11.85
2022-11-25T12:39:28.879Z,11.40
2022-11-25T12:42:01.237Z,12.63
2022-11-25T12:44:44.764Z,8.90
2022-11-25T12:47:12.287Z,10.18
2022-11-25T12:49:51.106Z,10.32
2022-11-25T12:52:36.971Z,11.35
2022-11-25T12:55:26.003Z,9.82
2022-11-25T12:58:05.016Z,11.43
2022-11-25T13:01:04.223Z,9.87
2022-11-25T13:03:52.512Z,9.82
2022-11-25T13:06:49.104Z,8.63
2022-11-25T13:09:53.999Z,12.57
2022-11-25T13:12:45.469Z,12.32
2022-11-25T13:15:44.963Z,10.00
2022-11-25T13:18:19.855Z,13.65
2022-11-25T13:20:55.677Z,11.38
2022-11-25T13:23:30.675Z,13.65
2022-11-25T13:26:37.976Z,11.55
2022-11-25T13:29:27.605Z,13.45
2022-11-25T13:32:02.801Z,10.98
2022-11-25T13:34:32.232Z,10.43
2022-11-25T13:37:23.503Z,13.68
2022-11-25T13:40:10.318Z,12.70
2022-11-25T13:42:44.086Z,12.02
2022-11-25T13:45:25.565Z,14.53
2022-11-25T13:47:54.083Z,12.85
2022-11-25T13:50:36.844Z,13.45
2022-11-25T13:53:23.731Z,12.38
2022-11-25T13:55:52.037Z,12.55
2022-11-25T13:58:22.633Z,14.43
2022-11-25T14:00:58.645Z,10.57
2022-11-25T14:03:25.643Z,11.93
2022-11-25T14:06:01.290Z,9.70
2022-11-25T14:08:44.364Z,13.93
2022-11-25T14:11:11.151Z,14.47
2022-11-25T14:13:59.555Z,13.77
2022-11-25T14:16:48.857Z,12.68
2022-11-25T14:22:52.463Z,14.23
2022-11-25T14:25:30.312Z,14.98
2022-11-25T14:28:21.815Z,12.30
2022-11-25T14:30:54.856Z,15.02
2022-11-25T14:33:31.620Z,12.23
2022-11-25T14:36:22.471Z,11.50
2022-11-25T14:39:06.414Z,13.03
2022-11-25T14:42:03.860Z,11.70
2022-11-25T14:44:42.407Z,11.15
2022-11-25T14:47:09.258Z,12.15
2022-11-25T14:49:49.145Z,13.02
2022-11-25T14:52:28.456Z,14.27
2022-11-25T14:54:57.704Z,10.45
2022-11-25T14:57:28.401Z,11.38
2022-11-25T14:59:58.576Z,14.77
2022-11-25T15:02:30.388Z,11.07
2022-11-25T15:05:21.322Z,13.02
2022-11-25T15:07:57.792Z,15.10
2022-11-25T15:10:44.327Z,13.40
2022-11-25T15:13:30.709Z,11.85
2022-11-25T15:16:06.478Z,18.77
2022-11-25T15:18:35.054Z,13.87
2022-11-25T15:21:03.129Z,19.33
2022-11-25T15:23:37.579Z,15.53
2022-11-25T15:26:15.295Z,13.93
2022-11-25T15:28:46.131Z,20.87
2022-11-25T15:31:19.932Z,14.27
2022-11-25T15:33:54.346Z,14.10
2022-11-25T15:36:23.967Z,10.23
2022-11-25T15:38:51.500Z,13.20
2022-11-25T17:12:48.941Z,17.30
2022-11-25T17:15:36.612Z,14.75
2022-11-25T17:18:10.997Z,22.77
2022-11-25T17:20:47.183Z,17.40
2022-11-25T17:23:27.383Z,19.43
